createdAt,value
2022-10-19T16:02:58.908Z,97692.28
2022-10-19T16:05:34.346Z,97692.78
2022-10-19T16:08:10.164Z,97701.53
2022-10-19T16:10:59.311Z,97694.00
2022-10-19T16:13:33.822Z,97701.31
2022-10-19T16:16:20.741Z,97696.13
2022-10-19T16:18:54.519Z,97703.59
2022-10-19T16:21:36.353Z,97707.56
2022-10-19T16:24:11.374Z,97711.84
2022-10-19T16:26:41.875Z,97724.09
2022-10-19T16:29:20.048Z,97719.72
2022-10-19T16:31:58.810Z,97722.06
2022-10-19T16:35:01.006Z,97724.34
2022-10-19T16:37:42.286Z,97721.16
2022-10-19T16:40:16.369Z,97722.50
2022-10-19T16:43:02.799Z,97722.97
2022-10-19T16:45:33.559Z,97723.72
2022-10-19T16:48:02.811Z,97729.03
2022-10-19T16:50:32.915Z,97723.47
2022-10-19T16:53:15.184Z,97731.75
2022-10-19T16:55:47.979Z,97728.69
2022-10-19T16:58:18.917Z,97732.38
2022-10-19T17:03:43.204Z,97735.81
2022-10-19T17:06:12.576Z,97733.59
2022-10-19T17:09:14.767Z,97730.00
2022-10-19T17:11:38.416Z,97736.66
2022-10-19T17:14:13.688Z,97739.91
2022-10-19T17:16:44.313Z,97741.91
2022-10-19T17:19:17.684Z,97744.16
2022-10-19T17:21:52.148Z,97740.94
2022-10-19T17:24:21.891Z,97743.91
2022-10-19T17:26:55.251Z,97752.19
2022-10-19T17:29:25.593Z,97755.91
2022-10-19T17:31:56.130Z,97774.56
2022-10-19T17:34:34.002Z,97802.09
2022-10-19T17:37:04.600Z,97804.81
2022-10-19T17:39:35.127Z,97803.50
2022-10-19T17:42:09.251Z,97795.09
2022-10-19T17:44:42.743Z,97800.56
2022-10-19T17:47:11.665Z,97800.56
2022-10-19T17:49:45.043Z,97827.75
2022-10-19T17:52:22.781Z,97824.66
2022-10-19T17:55:11.037Z,97818.31
2022-10-19T17:57:47.838Z,97820.75
2022-10-19T18:00:38.988Z,97814.50
2022-10-19T18:03:25.458Z,97796.91
2022-10-19T18:06:18.317Z,97790.69
2022-10-19T18:09:03.417Z,97784.78
2022-10-19T18:11:54.370Z,97808.19
2022-10-19T18:14:46.209Z,97825.09
2022-10-19T18:17:24.137Z,97821.34
2022-10-19T18:20:06.053Z,97812.88
2022-10-19T18:23:02.413Z,97815.84
2022-10-19T18:25:55.452Z,97800.84
2022-10-19T18:28:36.320Z,97793.63
2022-10-19T18:31:37.773Z,97788.75
2022-10-19T18:34:37.158Z,97771.38
2022-10-19T18:37:12.190Z,97769.19
2022-10-19T18:39:49.995Z,97767.13
2022-10-19T18:42:26.360Z,97762.38
2022-10-19T18:45:05.159Z,97754.75
2022-10-19T18:47:35.587Z,97751.47
2022-10-19T18:50:08.786Z,97752.31
2022-10-19T18:52:49.359Z,97757.84
2022-10-19T18:55:31.680Z,97755.75
2022-10-19T18:58:05.065Z,97756.88
2022-10-19T19:00:46.540Z,97764.59
2022-10-19T19:03:14.410Z,97762.78
2022-10-19T19:05:52.671Z,97753.06
2022-10-19T19:11:23.331Z,97743.88
2022-10-19T19:14:16.169Z,97753.44
2022-10-19T19:16:54.819Z,97758.69
2022-10-19T19:19:26.297Z,97764.19
2022-10-19T19:22:11.135Z,97782.81
2022-10-19T19:24:50.595Z,97789.03
2022-10-19T19:27:23.331Z,97796.13
2022-10-19T19:34:03.171Z,97803.03
2022-10-19T19:39:24.075Z,97795.91
2022-10-19T19:41:51.611Z,97806.50
2022-10-19T19:44:27.722Z,97806.84
2022-10-19T19:47:08.845Z,97813.56
2022-10-19T19:49:39.360Z,97813.50
2022-10-19T19:52:12.201Z,97812.47
2022-10-19T19:54:51.265Z,97822.06
2022-10-19T19:57:26.771Z,97822.16
2022-10-19T20:00:05.598Z,97835.09
2022-10-19T20:02:44.934Z,97822.47
2022-10-19T20:05:15.765Z,97823.41
2022-10-19T20:07:55.607Z,97827.34
2022-10-19T20:10:29.103Z,97834.94
2022-10-19T20:13:17.382Z,97827.09
2022-10-19T20:15:56.043Z,97826.00
2022-10-19T20:19:09.968Z,97824.06
2022-10-19T20:22:05.408Z,97821.47
2022-10-19T20:25:11.829Z,97824.22
2022-10-19T20:28:56.171Z,97820.66
2022-10-19T20:31:52.847Z,97822.03
2022-10-19T20:37:38.656Z,97834.38
2022-10-19T20:40:27.450Z,97825.84
2022-10-19T20:43:07.396Z,97827.25
2022-10-19T20:46:17.323Z,97829.50
2022-10-19T20:48:43.294Z,97818.50
2022-10-19T20:51:31.006Z,97819.56
2022-10-19T20:57:18.177Z,97814.63
2022-10-19T20:59:49.616Z,97812.41
2022-10-19T21:02:28.729Z,97813.25
2022-10-19T21:05:11.193Z,97814.41
2022-10-19T21:07:40.884Z,97806.75
2022-10-19T21:10:11.568Z,97811.94
2022-10-19T21:12:41.379Z,97803.59
2022-10-19T21:15:19.218Z,97805.22
2022-10-19T21:17:51.084Z,97816.66
2022-10-19T21:20:22.107Z,97810.88
2022-10-19T21:22:50.013Z,97811.06
2022-10-19T21:25:31.255Z,97816.72
2022-10-19T21:27:59.837Z,97810.56
2022-10-19T21:30:35.658Z,97816.34
2022-10-19T21:33:07.014Z,97811.84
2022-10-19T21:35:39.321Z,97824.19
2022-10-19T21:38:13.546Z,97832.75
2022-10-19T21:40:46.230Z,97851.88
2022-10-19T21:43:17.376Z,97848.50
2022-10-19T21:45:53.218Z,97851.03
2022-10-19T21:48:31.431Z,97852.59
2022-10-19T21:51:15.087Z,97857.09
2022-10-19T21:53:48.359Z,97857.47
2022-10-19T21:56:21.860Z,97862.81
2022-10-19T21:58:56.370Z,97875.25
2022-10-19T22:01:40.135Z,97874.59
2022-10-19T22:04:23.835Z,97872.38
2022-10-19T22:07:01.994Z,97870.97
2022-10-19T22:09:29.345Z,97882.16
2022-10-19T22:12:09.688Z,97883.59
2022-10-19T22:14:37.225Z,97883.06
2022-10-19T22:17:10.636Z,97879.84
2022-10-19T22:19:39.515Z,97877.09
2022-10-19T22:22:12.450Z,97875.59
2022-10-19T22:24:47.948Z,97870.59
2022-10-19T22:27:21.367Z,97861.47
2022-10-19T22:30:03.701Z,97860.50
2022-10-19T22:32:34.988Z,97862.44
2022-10-19T22:35:03.897Z,97857.50
2022-10-19T22:37:36.694Z,97873.06
2022-10-19T22:40:07.740Z,97862.56
2022-10-19T22:42:41.422Z,97857.84
2022-10-19T22:45:09.635Z,97856.22
2022-10-19T22:47:47.822Z,97864.75
2022-10-19T22:50:21.308Z,97869.81
2022-10-19T22:52:56.158Z,97856.28
2022-10-19T22:55:26.178Z,97854.19
2022-10-19T22:57:55.053Z,97854.13
2022-10-19T23:00:25.230Z,97853.56
2022-10-19T23:02:52.434Z,97846.47
2022-10-19T23:05:29.429Z,97841.22
2022-10-19T23:07:59.342Z,97843.84
2022-10-19T23:10:52.577Z,97846.75
2022-10-19T23:13:27.402Z,97855.53
2022-10-19T23:16:02.299Z,97858.19
2022-10-19T23:18:42.888Z,97859.03
2022-10-19T23:21:14.968Z,97863.16
2022-10-19T23:23:46.013Z,97860.53
2022-10-19T23:26:23.060Z,97868.13
2022-10-19T23:28:55.228Z,97872.63
2022-10-19T23:31:30.833Z,97866.16
2022-10-19T23:34:01.514Z,97861.47
2022-10-19T23:36:32.354Z,97860.53
2022-10-19T23:39:08.830Z,97860.66
2022-10-19T23:41:41.984Z,97870.03
2022-10-19T23:44:14.732Z,97863.59
2022-10-19T23:46:44.818Z,97869.56
2022-10-19T23:49:29.676Z,97860.34
2022-10-19T23:52:01.638Z,97866.72
2022-10-19T23:54:40.466Z,97855.69
2022-10-19T23:57:19.625Z,97856.22
2022-10-19T23:59:56.396Z,97847.47
